sensor_id;sensor_type;location;lat;lon;timestamp;pressure;altitude;pressure_sealevel;temperature;humidity
24390;BME280;12510;56.468;-3.004;2022-07-06T00:00:12;101294.03;;;16.09;100.00
24390;BME280;12510;56.468;-3.004;2022-07-06T00:02:39;101291.25;;;15.93;100.00
24390;BME280;12510;56.468;-3.004;2022-07-06T00:05:06;101294.28;;;16.24;100.00
24390;BME280;12510;56.468;-3.004;2022-07-06T00:07:32;101291.88;;;15.69;100.00
24390;BME280;12510;56.468;-3.004;2022-07-06T00:09:59;101288.50;;;16.03;100.00
24390;BME280;12510;56.468;-3.004;2022-07-06T00:12:26;101288.53;;;16.37;100.00
24390;BME280;12510;56.468;-3.004;2022-07-06T00:14:52;101284.16;;;16.02;100.00
24390;BME280;12510;56.468;-3.004;2022-07-06T00:17:19;101284.69;;;16.05;100.00
24390;BME280;12510;56.468;-3.004;2022-07-06T00:19:45;101273.25;;;16.05;100.00
24390;BME280;12510;56.468;-3.004;2022-07-06T00:22:11;101274.44;;;16.11;100.00
24390;BME280;12510;56.468;-3.004;2022-07-06T00:24:38;101270.16;;;16.18;100.00
24390;BME280;12510;56.468;-3.004;2022-07-06T00:27:04;101276.41;;;16.08;100.00
24390;BME280;12510;56.468;-3.004;2022-07-06T00:29:31;101287.44;;;16.22;100.00
24390;BME280;12510;56.468;-3.004;2022-07-06T00:31:57;101276.59;;;16.15;100.00
24390;BME280;12510;56.468;-3.004;2022-07-06T00:34:24;101260.22;;;16.20;100.00
24390;BME280;12510;56.468;-3.004;2022-07-06T00:36:50;101267.16;;;15.86;100.00
24390;BME280;12510;56.468;-3.004;2022-07-06T00:39:35;101261.31;;;15.83;100.00
24390;BME280;12510;56.468;-3.004;2022-07-06T00:42:02;101245.81;;;15.78;100.00
24390;BME280;12510;56.468;-3.004;2022-07-06T00:44:28;101238.31;;;15.73;100.00
24390;BME280;12510;56.468;-3.004;2022-07-06T00:46:55;101248.31;;;15.80;100.00
24390;BME280;12510;56.468;-3.004;2022-07-06T00:49:22;101248.28;;;15.98;100.00
24390;BME280;12510;56.468;-3.004;2022-07-06T00:52:06;101246.16;;;16.01;100.00
24390;BME280;12510;56.468;-3.004;2022-07-06T00:54:34;101254.06;;;15.93;100.00
24390;BME280;12510;56.468;-3.004;2022-07-06T00:57:01;101242.91;;;15.89;100.00
24390;BME280;12510;56.468;-3.004;2022-07-06T00:59:28;101236.78;;;15.89;100.00
24390;BME280;12510;56.468;-3.004;2022-07-06T01:01:54;101235.31;;;15.76;100.00
24390;BME280;12510;56.468;-3.004;2022-07-06T01:04:21;101231.28;;;15.82;100.00
24390;BME280;12510;56.468;-3.004;2022-07-06T01:06:47;101238.75;;;15.87;100.00
24390;BME280;12510;56.468;-3.004;2022-07-06T01:09:14;101232.84;;;15.93;100.00
24390;BME280;12510;56.468;-3.004;2022-07-06T01:11:40;101235.66;;;15.91;100.00
24390;BME280;12510;56.468;-3.004;2022-07-06T01:14:08;101226.81;;;16.17;100.00
24390;BME280;12510;56.468;-3.004;2022-07-06T01:16:35;101236.72;;;16.07;100.00
24390;BME280;12510;56.468;-3.004;2022-07-06T01:19:02;101235.53;;;16.01;100.00
24390;BME280;12510;56.468;-3.004;2022-07-06T01:21:29;101232.59;;;16.13;100.00
24390;BME280;12510;56.468;-3.004;2022-07-06T01:23:55;101231.97;;;15.92;100.00
24390;BME280;12510;56.468;-3.004;2022-07-06T01:26:22;101235.13;;;15.88;100.00
24390;BME280;12510;56.468;-3.004;2022-07-06T01:28:49;101228.53;;;16.00;100.00
24390;BME280;12510;56.468;-3.004;2022-07-06T01:31:22;101228.78;;;15.81;100.00
24390;BME280;12510;56.468;-3.004;2022-07-06T01:33:52;101222.81;;;16.13;100.00
24390;BME280;12510;56.468;-3.004;2022-07-06T01:36:18;101218.41;;;15.96;100.00
24390;BME280;12510;56.468;-3.004;2022-07-06T01:38:53;101213.88;;;15.70;100.00
24390;BME280;12510;56.468;-3.004;2022-07-06T01:41:21;101220.41;;;16.02;100.00
24390;BME280;12510;56.468;-3.004;2022-07-06T01:43:48;101215.91;;;15.94;100.00
24390;BME280;12510;56.468;-3.004;2022-07-06T01:46:15;101212.28;;;15.77;100.00
24390;BME280;12510;56.468;-3.004;2022-07-06T01:48:42;101202.47;;;15.96;100.00
24390;BME280;12510;56.468;-3.004;2022-07-06T01:51:09;101204.91;;;15.89;100.00
24390;BME280;12510;56.468;-3.004;2022-07-06T01:53:36;101207.94;;;15.94;100.00
24390;BME280;12510;56.468;-3.004;2022-07-06T01:56:05;101196.31;;;15.95;100.00
24390;BME280;12510;56.468;-3.004;2022-07-06T01:58:31;101196.50;;;15.75;100.00
24390;BME280;12510;56.468;-3.004;2022-07-06T02:00:58;101192.34;;;15.73;100.00
24390;BME280;12510;56.468;-3.004;2022-07-06T02:03:24;101209.53;;;15.87;100.00
24390;BME280;12510;56.468;-3.004;2022-07-06T02:05:51;101202.72;;;15.84;100.00
24390;BME280;12510;56.468;-3.004;2022-07-06T02:08:18;101199.66;;;15.97;100.00
24390;BME280;12510;56.468;-3.004;2022-07-06T02:10:44;101197.97;;;15.96;100.00
24390;BME280;12510;56.468;-3.004;2022-07-06T02:13:11;101199.31;;;16.00;100.00
24390;BME280;12510;56.468;-3.004;2022-07-06T02:15:37;101189.09;;;16.14;100.00
24390;BME280;12510;56.468;-3.004;2022-07-06T02:18:05;101191.88;;;16.38;100.00
24390;BME280;12510;56.468;-3.004;2022-07-06T02:20:31;101183.34;;;16.27;100.00
24390;BME280;12510;56.468;-3.004;2022-07-06T02:22:57;101176.88;;;16.29;100.00
24390;BME280;12510;56.468;-3.004;2022-07-06T02:25:24;101174.44;;;16.44;100.00
24390;BME280;12510;56.468;-3.004;2022-07-06T02:27:51;101157.84;;;16.50;100.00
24390;BME280;12510;56.468;-3.004;2022-07-06T02:30:17;101155.38;;;16.57;100.00
24390;BME280;12510;56.468;-3.004;2022-07-06T02:32:45;101146.19;;;16.43;100.00
24390;BME280;12510;56.468;-3.004;2022-07-06T02:35:11;101149.03;;;16.66;100.00
24390;BME280;12510;56.468;-3.004;2022-07-06T02:37:38;101150.59;;;16.85;100.00
24390;BME280;12510;56.468;-3.004;2022-07-06T02:40:06;101144.41;;;16.68;100.00
24390;BME280;12510;56.468;-3.004;2022-07-06T02:42:33;101138.09;;;16.78;100.00
24390;BME280;12510;56.468;-3.004;2022-07-06T02:45:00;101141.47;;;16.96;100.00
24390;BME280;12510;56.468;-3.004;2022-07-06T02:47:27;101151.56;;;16.84;100.00
24390;BME280;12510;56.468;-3.004;2022-07-06T02:49:54;101147.06;;;16.68;100.00
24390;BME280;12510;56.468;-3.004;2022-07-06T02:52:22;101153.41;;;16.84;100.00
24390;BME280;12510;56.468;-3.004;2022-07-06T02:54:48;101151.22;;;16.63;100.00
24390;BME280;12510;56.468;-3.004;2022-07-06T02:57:16;101148.72;;;16.69;100.00
24390;BME280;12510;56.468;-3.004;2022-07-06T02:59:44;101136.06;;;16.55;100.00
24390;BME280;12510;56.468;-3.004;2022-07-06T03:02:10;101132.78;;;16.61;100.00
24390;BME280;12510;56.468;-3.004;2022-07-06T03:04:37;101135.09;;;16.72;100.00
24390;BME280;12510;56.468;-3.004;2022-07-06T03:07:04;101125.97;;;16.67;100.00
24390;BME280;12510;56.468;-3.004;2022-07-06T03:09:31;101119.47;;;16.61;100.00
24390;BME280;12510;56.468;-3.004;2022-07-06T03:11:58;101119.44;;;16.53;100.00
24390;BME280;12510;56.468;-3.004;2022-07-06T03:14:25;101117.13;;;16.58;100.00
24390;BME280;12510;56.468;-3.004;2022-07-06T03:16:52;101109.47;;;16.55;100.00
24390;BME280;12510;56.468;-3.004;2022-07-06T03:19:19;101108.50;;;16.56;100.00
24390;BME280;12510;56.468;-3.004;2022-07-06T03:21:46;101119.41;;;16.36;100.00
24390;BME280;12510;56.468;-3.004;2022-07-06T03:24:12;101119.72;;;16.25;100.00
24390;BME280;12510;56.468;-3.004;2022-07-06T03:26:39;101118.28;;;16.55;100.00
24390;BME280;12510;56.468;-3.004;2022-07-06T03:29:05;101110.97;;;16.49;100.00
24390;BME280;12510;56.468;-3.004;2022-07-06T03:31:32;101111.81;;;16.66;100.00
24390;BME280;12510;56.468;-3.004;2022-07-06T03:33:58;101100.00;;;16.69;100.00
24390;BME280;12510;56.468;-3.004;2022-07-06T03:36:25;101097.34;;;16.69;100.00
24390;BME280;12510;56.468;-3.004;2022-07-06T03:38:52;101100.34;;;16.66;100.00
24390;BME280;12510;56.468;-3.004;2022-07-06T03:41:19;101093.22;;;16.74;100.00
24390;BME280;12510;56.468;-3.004;2022-07-06T03:43:47;101093.44;;;16.89;100.00
24390;BME280;12510;56.468;-3.004;2022-07-06T03:46:13;101086.72;;;16.69;100.00
24390;BME280;12510;56.468;-3.004;2022-07-06T03:48:39;101088.50;;;16.35;100.00
24390;BME280;12510;56.468;-3.004;2022-07-06T03:51:07;101092.84;;;16.36;100.00
24390;BME280;12510;56.468;-3.004;2022-07-06T03:53:34;101089.56;;;16.67;100.00
24390;BME280;12510;56.468;-3.004;2022-07-06T03:56:01;101092.72;;;16.63;100.00
24390;BME280;12510;56.468;-3.004;2022-07-06T03:58:45;101088.72;;;16.50;100.00
24390;BME280;12510;56.468;-3.004;2022-07-06T04:01:12;101092.03;;;16.44;100.00
24390;BME280;12510;56.468;-3.004;2022-07-06T04:03:39;101093.53;;;16.47;100.00
24390;BME280;12510;56.468;-3.004;2022-07-06T04:06:06;101085.22;;;16.50;100.00
24390;BME280;12510;56.468;-3.004;2022-07-06T04:08:33;101076.91;;;16.45;100.00
24390;BME280;12510;56.468;-3.004;2022-07-06T04:11:01;101083.59;;;16.73;100.00
24390;BME280;12510;56.468;-3.004;2022-07-06T04:13:28;101083.75;;;16.72;100.00
24390;BME280;12510;56.468;-3.004;2022-07-06T04:15:55;101086.25;;;16.73;100.00
24390;BME280;12510;56.468;-3.004;2022-07-06T04:18:22;101079.06;;;16.82;100.00
24390;BME280;12510;56.468;-3.004;2022-07-06T04:20:52;101081.56;;;16.67;100.00
24390;BME280;12510;56.468;-3.004;2022-07-06T04:23:19;101073.28;;;16.79;100.00
24390;BME280;12510;56.468;-3.004;2022-07-06T04:25:46;101071.59;;;16.45;100.00
24390;BME280;12510;56.468;-3.004;2022-07-06T04:28:12;101074.25;;;16.45;100.00
24390;BME280;12510;56.468;-3.004;2022-07-06T04:30:38;101084.91;;;16.61;100.00
24390;BME280;12510;56.468;-3.004;2022-07-06T04:33:08;101072.78;;;16.75;100.00
24390;BME280;12510;56.468;-3.004;2022-07-06T04:35:35;101072.94;;;16.82;100.00
24390;BME280;12510;56.468;-3.004;2022-07-06T04:38:02;101072.13;;;17.06;100.00
24390;BME280;12510;56.468;-3.004;2022-07-06T04:40:29;101060.00;;;16.95;100.00
24390;BME280;12510;56.468;-3.004;2022-07-06T04:42:59;101050.16;;;16.87;100.00
24390;BME280;12510;56.468;-3.004;2022-07-06T04:45:26;101042.19;;;16.87;100.00
24390;BME280;12510;56.468;-3.004;2022-07-06T04:47:53;101038.72;;;16.79;100.00
24390;BME280;12510;56.468;-3.004;2022-07-06T04:50:20;101048.00;;;17.07;100.00
24390;BME280;12510;56.468;-3.004;2022-07-06T04:52:47;101040.19;;;16.81;100.00
24390;BME280;12510;56.468;-3.004;2022-07-06T04:55:14;101034.72;;;16.91;100.00
24390;BME280;12510;56.468;-3.004;2022-07-06T04:57:41;101039.38;;;16.72;100.00
24390;BME280;12510;56.468;-3.004;2022-07-06T05:00:09;101044.34;;;16.59;100.00
24390;BME280;12510;56.468;-3.004;2022-07-06T05:02:36;101057.63;;;16.67;100.00
24390;BME280;12510;56.468;-3.004;2022-07-06T05:05:04;101043.69;;;16.90;100.00
24390;BME280;12510;56.468;-3.004;2022-07-06T05:07:31;101043.50;;;16.83;100.00
24390;BME280;12510;56.468;-3.004;2022-07-06T05:09:59;101054.00;;;16.93;100.00
24390;BME280;12510;56.468;-3.004;2022-07-06T05:12:26;101048.38;;;16.96;100.00
24390;BME280;12510;56.468;-3.004;2022-07-06T05:14:52;101048.84;;;16.83;100.00
24390;BME280;12510;56.468;-3.004;2022-07-06T05:17:20;101050.34;;;16.69;100.00
24390;BME280;12510;56.468;-3.004;2022-07-06T05:19:47;101056.16;;;16.65;100.00
24390;BME280;12510;56.468;-3.004;2022-07-06T05:22:14;101057.81;;;16.74;100.00
24390;BME280;12510;56.468;-3.004;2022-07-06T05:24:40;101047.31;;;17.22;100.00
24390;BME280;12510;56.468;-3.004;2022-07-06T05:27:07;101041.53;;;16.94;100.00
24390;BME280;12510;56.468;-3.004;2022-07-06T05:29:34;101028.06;;;16.79;100.00
24390;BME280;12510;56.468;-3.004;2022-07-06T05:32:00;101039.16;;;17.23;100.00
24390;BME280;12510;56.468;-3.004;2022-07-06T05:34:27;101028.41;;;16.84;100.00
24390;BME280;12510;56.468;-3.004;2022-07-06T05:36:53;101021.59;;;16.89;100.00
24390;BME280;12510;56.468;-3.004;2022-07-06T05:39:19;101021.06;;;17.11;100.00
24390;BME280;12510;56.468;-3.004;2022-07-06T05:41:49;101020.22;;;17.10;100.00
24390;BME280;12510;56.468;-3.004;2022-07-06T05:44:16;101030.19;;;17.24;100.00
24390;BME280;12510;56.468;-3.004;2022-07-06T05:46:43;101018.72;;;17.07;100.00
24390;BME280;12510;56.468;-3.004;2022-07-06T05:49:10;101016.88;;;17.24;100.00
24390;BME280;12510;56.468;-3.004;2022-07-06T05:51:55;101018.25;;;16.96;100.00
24390;BME280;12510;56.468;-3.004;2022-07-06T05:54:21;101010.25;;;16.87;100.00
24390;BME280;12510;56.468;-3.004;2022-07-06T05:56:48;101000.16;;;16.91;100.00
24390;BME280;12510;56.468;-3.004;2022-07-06T05:59:15;100987.00;;;16.98;100.00
24390;BME280;12510;56.468;-3.004;2022-07-06T06:01:41;101007.44;;;16.89;100.00
24390;BME280;12510;56.468;-3.004;2022-07-06T06:04:13;101005.13;;;16.78;100.00
24390;BME280;12510;56.468;-3.004;2022-07-06T06:06:39;100999.34;;;16.90;100.00
24390;BME280;12510;56.468;-3.004;2022-07-06T06:09:05;100989.47;;;17.07;100.00
24390;BME280;12510;56.468;-3.004;2022-07-06T06:11:32;100988.16;;;16.87;100.00
24390;BME280;12510;56.468;-3.004;2022-07-06T06:13:59;100990.94;;;17.18;100.00
24390;BME280;12510;56.468;-3.004;2022-07-06T06:16:25;100982.31;;;17.00;100.00
24390;BME280;12510;56.468;-3.004;2022-07-06T06:18:52;100978.66;;;17.09;100.00
24390;BME280;12510;56.468;-3.004;2022-07-06T06:21:18;100974.78;;;17.28;100.00
24390;BME280;12510;56.468;-3.004;2022-07-06T06:23:50;100972.19;;;17.03;100.00
24390;BME280;12510;56.468;-3.004;2022-07-06T06:26:17;100974.88;;;16.95;100.00
24390;BME280;12510;56.468;-3.004;2022-07-06T06:28:43;100971.69;;;17.08;100.00
24390;BME280;12510;56.468;-3.004;2022-07-06T06:31:10;100972.13;;;17.20;100.00
24390;BME280;12510;56.468;-3.004;2022-07-06T06:33:36;100975.78;;;17.27;100.00
24390;BME280;12510;56.468;-3.004;2022-07-06T06:36:03;100979.78;;;17.23;100.00
24390;BME280;12510;56.468;-3.004;2022-07-06T06:38:29;100979.00;;;17.06;100.00
24390;BME280;12510;56.468;-3.004;2022-07-06T06:40:55;100977.53;;;16.87;100.00
24390;BME280;12510;56.468;-3.004;2022-07-06T06:43:22;100989.28;;;17.17;100.00
24390;BME280;12510;56.468;-3.004;2022-07-06T06:45:58;100981.69;;;16.89;100.00
24390;BME280;12510;56.468;-3.004;2022-07-06T06:48:25;100975.69;;;17.04;100.00
24390;BME280;12510;56.468;-3.004;2022-07-06T06:50:51;100974.06;;;17.34;100.00
24390;BME280;12510;56.468;-3.004;2022-07-06T06:53:18;100980.16;;;17.51;100.00
24390;BME280;12510;56.468;-3.004;2022-07-06T06:55:44;100971.47;;;17.18;100.00
24390;BME280;12510;56.468;-3.004;2022-07-06T06:58:10;100985.75;;;17.25;100.00
24390;BME280;12510;56.468;-3.004;2022-07-06T07:00:37;100975.75;;;17.35;100.00
24390;BME280;12510;56.468;-3.004;2022-07-06T07:03:03;100964.56;;;17.40;100.00
24390;BME280;12510;56.468;-3.004;2022-07-06T07:05:30;100976.69;;;17.42;100.00
24390;BME280;12510;56.468;-3.004;2022-07-06T07:07:56;100975.50;;;17.14;100.00
24390;BME280;12510;56.468;-3.004;2022-07-06T07:10:25;100966.25;;;17.33;100.00
24390;BME280;12510;56.468;-3.004;2022-07-06T07:12:52;100965.44;;;17.32;100.00
24390;BME280;12510;56.468;-3.004;2022-07-06T07:15:19;100962.03;;;17.47;100.00
24390;BME280;12510;56.468;-3.004;2022-07-06T07:17:45;100957.41;;;17.72;100.00
24390;BME280;12510;56.468;-3.004;2022-07-06T07:20:12;100965.69;;;17.54;100.00
24390;BME280;12510;56.468;-3.004;2022-07-06T07:22:38;100971.03;;;17.46;100.00
24390;BME280;12510;56.468;-3.004;2022-07-06T07:25:06;100970.13;;;17.22;100.00
24390;BME280;12510;56.468;-3.004;2022-07-06T07:27:32;100978.91;;;17.39;100.00
24390;BME280;12510;56.468;-3.004;2022-07-06T07:29:59;100988.50;;;17.40;100.00
24390;BME280;12510;56.468;-3.004;2022-07-06T07:32:25;100982.28;;;17.56;100.00
24390;BME280;12510;56.468;-3.004;2022-07-06T07:34:52;100974.50;;;17.86;100.00
24390;BME280;12510;56.468;-3.004;2022-07-06T07:37:18;100983.56;;;17.37;100.00
24390;BME280;12510;56.468;-3.004;2022-07-06T07:39:44;100985.97;;;17.86;100.00
24390;BME280;12510;56.468;-3.004;2022-07-06T07:42:11;100976.97;;;17.56;100.00
24390;BME280;12510;56.468;-3.004;2022-07-06T07:44:37;100978.25;;;17.68;100.00
24390;BME280;12510;56.468;-3.004;2022-07-06T07:47:05;100960.69;;;17.82;100.00
24390;BME280;12510;56.468;-3.004;2022-07-06T07:49:31;100963.72;;;17.79;100.00
24390;BME280;12510;56.468;-3.004;2022-07-06T07:51:58;100957.00;;;18.15;100.00
24390;BME280;12510;56.468;-3.004;2022-07-06T07:54:24;100949.69;;;18.32;100.00
24390;BME280;12510;56.468;-3.004;2022-07-06T07:56:51;100937.88;;;18.11;100.00
24390;BME280;12510;56.468;-3.004;2022-07-06T07:59:17;100931.84;;;18.32;100.00
24390;BME280;12510;56.468;-3.004;2022-07-06T08:01:43;100939.81;;;18.17;100.00
24390;BME280;12510;56.468;-3.004;2022-07-06T08:04:10;100930.38;;;18.30;100.00
24390;BME280;12510;56.468;-3.004;2022-07-06T08:06:36;100940.47;;;18.19;100.00
24390;BME280;12510;56.468;-3.004;2022-07-06T08:09:03;100948.28;;;18.21;100.00
24390;BME280;12510;56.468;-3.004;2022-07-06T08:11:30;100939.84;;;18.32;100.00
24390;BME280;12510;56.468;-3.004;2022-07-06T08:13:57;100928.19;;;17.87;100.00
24390;BME280;12510;56.468;-3.004;2022-07-06T08:16:23;100932.34;;;18.36;100.00
24390;BME280;12510;56.468;-3.004;2022-07-06T08:18:50;100933.84;;;18.53;100.00
24390;BME280;12510;56.468;-3.004;2022-07-06T08:21:16;100935.50;;;17.93;100.00
24390;BME280;12510;56.468;-3.004;2022-07-06T08:23:42;100931.53;;;18.35;100.00
24390;BME280;12510;56.468;-3.004;2022-07-06T08:26:09;100928.34;;;18.70;100.00
24390;BME280;12510;56.468;-3.004;2022-07-06T08:28:35;100925.75;;;18.62;100.00
24390;BME280;12510;56.468;-3.004;2022-07-06T08:31:02;100930.09;;;18.77;100.00
24390;BME280;12510;56.468;-3.004;2022-07-06T08:33:28;100925.03;;;18.83;100.00
24390;BME280;12510;56.468;-3.004;2022-07-06T08:35:55;100922.59;;;18.96;100.00
24390;BME280;12510;56.468;-3.004;2022-07-06T08:38:21;100928.53;;;18.68;100.00
24390;BME280;12510;56.468;-3.004;2022-07-06T08:40:49;100923.56;;;18.65;100.00
24390;BME280;12510;56.468;-3.004;2022-07-06T08:43:16;100941.16;;;19.19;100.00
24390;BME280;12510;56.468;-3.004;2022-07-06T08:45:42;100931.78;;;19.08;100.00
24390;BME280;12510;56.468;-3.004;2022-07-06T08:48:12;100929.97;;;19.09;100.00
24390;BME280;12510;56.468;-3.004;2022-07-06T08:50:39;100920.50;;;18.91;100.00
24390;BME280;12510;56.468;-3.004;2022-07-06T08:53:05;100920.09;;;18.95;100.00
24390;BME280;12510;56.468;-3.004;2022-07-06T08:55:32;100915.75;;;19.23;100.00
24390;BME280;12510;56.468;-3.004;2022-07-06T08:57:59;100916.13;;;19.57;100.00
24390;BME280;12510;56.468;-3.004;2022-07-06T09:00:26;100916.28;;;19.34;100.00
24390;BME280;12510;56.468;-3.004;2022-07-06T09:02:53;100916.22;;;19.12;100.00
24390;BME280;12510;56.468;-3.004;2022-07-06T09:05:23;100921.16;;;19.30;100.00
24390;BME280;12510;56.468;-3.004;2022-07-06T09:07:51;100920.34;;;18.70;100.00
24390;BME280;12510;56.468;-3.004;2022-07-06T09:10:20;100917.59;;;19.23;100.00
24390;BME280;12510;56.468;-3.004;2022-07-06T09:12:47;100931.66;;;18.87;100.00
24390;BME280;12510;56.468;-3.004;2022-07-06T09:15:13;100918.72;;;19.14;100.00
24390;BME280;12510;56.468;-3.004;2022-07-06T09:17:42;100930.47;;;18.74;100.00
24390;BME280;12510;56.468;-3.004;2022-07-06T09:20:10;100934.63;;;19.22;100.00
24390;BME280;12510;56.468;-3.004;2022-07-06T09:22:38;100939.94;;;19.52;100.00
24390;BME280;12510;56.468;-3.004;2022-07-06T09:25:06;100946.16;;;19.22;100.00
24390;BME280;12510;56.468;-3.004;2022-07-06T09:27:45;100939.59;;;19.25;100.00
24390;BME280;12510;56.468;-3.004;2022-07-06T09:30:16;100943.47;;;19.22;100.00
24390;BME280;12510;56.468;-3.004;2022-07-06T09:32:45;100928.47;;;19.58;100.00
24390;BME280;12510;56.468;-3.004;2022-07-06T09:38:13;100949.56;;;19.53;100.00
24390;BME280;12510;56.468;-3.004;2022-07-06T09:40:41;100938.69;;;19.18;100.00
24390;BME280;12510;56.468;-3.004;2022-07-06T09:43:18;100932.28;;;19.49;100.00
24390;BME280;12510;56.468;-3.004;2022-07-06T09:45:46;100934.72;;;19.65;100.00
24390;BME280;12510;56.468;-3.004;2022-07-06T09:48:18;100936.38;;;19.66;100.00
24390;BME280;12510;56.468;-3.004;2022-07-06T09:50:49;100936.69;;;19.78;100.00
24390;BME280;12510;56.468;-3.004;2022-07-06T09:53:24;100944.19;;;19.83;100.00
24390;BME280;12510;56.468;-3.004;2022-07-06T09:55:55;100932.38;;;19.40;100.00
24390;BME280;12510;56.468;-3.004;2022-07-06T09:58:24;100932.31;;;19.34;100.00
24390;BME280;12510;56.468;-3.004;2022-07-06T10:00:51;100921.72;;;19.62;100.00
24390;BME280;12510;56.468;-3.004;2022-07-06T10:03:17;100926.38;;;19.53;100.00
24390;BME280;12510;56.468;-3.004;2022-07-06T10:05:46;100924.84;;;19.81;100.00
24390;BME280;12510;56.468;-3.004;2022-07-06T10:08:14;100927.84;;;19.56;100.00
24390;BME280;12510;56.468;-3.004;2022-07-06T10:10:42;100920.69;;;19.41;100.00
24390;BME280;12510;56.468;-3.004;2022-07-06T10:13:09;100913.38;;;19.14;100.00
24390;BME280;12510;56.468;-3.004;2022-07-06T10:15:38;100900.56;;;19.24;100.00
24390;BME280;12510;56.468;-3.004;2022-07-06T10:18:07;100892.13;;;19.79;100.00
24390;BME280;12510;56.468;-3.004;2022-07-06T10:20:36;100890.59;;;20.13;100.00
24390;BME280;12510;56.468;-3.004;2022-07-06T10:23:07;100892.47;;;19.54;100.00
24390;BME280;12510;56.468;-3.004;2022-07-06T10:25:34;100883.44;;;19.33;100.00
24390;BME280;12510;56.468;-3.004;2022-07-06T10:28:02;100883.00;;;19.88;100.00
24390;BME280;12510;56.468;-3.004;2022-07-06T10:30:29;100886.50;;;19.52;100.00
24390;BME280;12510;56.468;-3.004;2022-07-06T10:32:58;100880.88;;;19.83;100.00
24390;BME280;12510;56.468;-3.004;2022-07-06T10:35:25;100887.25;;;20.32;100.00
24390;BME280;12510;56.468;-3.004;2022-07-06T10:38:07;100883.84;;;20.17;100.00
24390;BME280;12510;56.468;-3.004;2022-07-06T10:40:41;100870.50;;;19.73;100.00
24390;BME280;12510;56.468;-3.004;2022-07-06T10:43:37;100872.19;;;20.24;100.00
24390;BME280;12510;56.468;-3.004;2022-07-06T10:46:11;100865.84;;;19.82;100.00
24390;BME280;12510;56.468;-3.004;2022-07-06T10:48:39;100867.97;;;20.43;100.00
24390;BME280;12510;56.468;-3.004;2022-07-06T10:51:07;100863.97;;;20.26;100.00
24390;BME280;12510;56.468;-3.004;2022-07-06T10:53:37;100851.94;;;20.43;100.00
24390;BME280;12510;56.468;-3.004;2022-07-06T10:56:10;100859.38;;;20.48;100.00
24390;BME280;12510;56.468;-3.004;2022-07-06T10:58:46;100855.81;;;20.69;100.00
24390;BME280;12510;56.468;-3.004;2022-07-06T11:01:13;100856.56;;;20.56;100.00
24390;BME280;12510;56.468;-3.004;2022-07-06T11:06:25;100848.66;;;20.76;100.00
24390;BME280;12510;56.468;-3.004;2022-07-06T11:09:03;100835.44;;;20.40;100.00
24390;BME280;12510;56.468;-3.004;2022-07-06T11:14:05;100849.00;;;20.38;100.00
24390;BME280;12510;56.468;-3.004;2022-07-06T11:16:37;100838.31;;;19.82;100.00
24390;BME280;12510;56.468;-3.004;2022-07-06T11:19:15;100846.78;;;19.85;100.00
24390;BME280;12510;56.468;-3.004;2022-07-06T11:21:47;100843.66;;;19.82;100.00
24390;BME280;12510;56.468;-3.004;2022-07-06T11:24:35;100843.66;;;19.82;100.00
24390;BME280;12510;56.468;-3.004;2022-07-06T11:27:02;100856.81;;;19.83;100.00
24390;BME280;12510;56.468;-3.004;2022-07-06T11:29:29;100835.94;;;19.50;100.00
24390;BME280;12510;56.468;-3.004;2022-07-06T11:31:58;100844.13;;;19.49;100.00
24390;BME280;12510;56.468;-3.004;2022-07-06T11:34:28;100832.22;;;19.88;100.00
24390;BME280;12510;56.468;-3.004;2022-07-06T11:37:00;100825.81;;;19.46;100.00
24390;BME280;12510;56.468;-3.004;2022-07-06T11:39:28;100831.09;;;19.17;100.00
24390;BME280;12510;56.468;-3.004;2022-07-06T11:41:56;100805.59;;;19.58;100.00
24390;BME280;12510;56.468;-3.004;2022-07-06T11:44:22;100813.94;;;19.70;100.00
24390;BME280;12510;56.468;-3.004;2022-07-06T11:46:49;100807.25;;;19.59;100.00
24390;BME280;12510;56.468;-3.004;2022-07-06T11:49:16;100810.69;;;19.31;100.00
24390;BME280;12510;56.468;-3.004;2022-07-06T11:51:45;100795.66;;;19.95;100.00
24390;BME280;12510;56.468;-3.004;2022-07-06T11:54:19;100809.28;;;20.00;100.00
24390;BME280;12510;56.468;-3.004;2022-07-06T11:56:57;100800.78;;;19.68;100.00
24390;BME280;12510;56.468;-3.004;2022-07-06T11:59:28;100799.25;;;19.37;100.00
24390;BME280;12510;56.468;-3.004;2022-07-06T12:02:12;100794.47;;;19.76;100.00
24390;BME280;12510;56.468;-3.004;2022-07-06T12:04:42;100788.31;;;19.54;100.00
24390;BME280;12510;56.468;-3.004;2022-07-06T12:07:11;100787.91;;;19.14;100.00
24390;BME280;12510;56.468;-3.004;2022-07-06T12:09:39;100772.09;;;19.34;100.00
24390;BME280;12510;56.468;-3.004;2022-07-06T12:12:07;100774.09;;;19.75;100.00
24390;BME280;12510;56.468;-3.004;2022-07-06T12:14:36;100771.69;;;19.37;100.00
24390;BME280;12510;56.468;-3.004;2022-07-06T12:17:08;100763.13;;;19.20;100.00
24390;BME280;12510;56.468;-3.004;2022-07-06T12:19:35;100762.97;;;19.71;100.00
24390;BME280;12510;56.468;-3.004;2022-07-06T12:22:03;100747.59;;;20.02;100.00
24390;BME280;12510;56.468;-3.004;2022-07-06T12:24:31;100737.81;;;19.59;100.00
24390;BME280;12510;56.468;-3.004;2022-07-06T12:27:09;100753.72;;;19.46;100.00
24390;BME280;12510;56.468;-3.004;2022-07-06T12:29:37;100759.28;;;19.22;100.00
24390;BME280;12510;56.468;-3.004;2022-07-06T12:32:04;100760.84;;;19.17;100.00
24390;BME280;12510;56.468;-3.004;2022-07-06T12:34:32;100757.25;;;19.74;100.00
24390;BME280;12510;56.468;-3.004;2022-07-06T12:37:09;100747.72;;;19.87;100.00
24390;BME280;12510;56.468;-3.004;2022-07-06T12:39:46;100753.47;;;20.19;100.00
24390;BME280;12510;56.468;-3.004;2022-07-06T12:42:15;100748.91;;;20.13;100.00